sensor_id;sensor_type;location;lat;lon;timestamp;P1;durP1;ratioP1;P2;durP2;ratioP2
30862;SDS011;17573;55.922;37.540;2023-08-30T00:00:58;8.75;;;7.60;;
30862;SDS011;17573;55.922;37.540;2023-08-30T00:03:24;8.05;;;7.22;;
30862;SDS011;17573;55.922;37.540;2023-08-30T00:05:50;8.15;;;7.18;;
30862;SDS011;17573;55.922;37.540;2023-08-30T00:08:16;10.07;;;7.95;;
30862;SDS011;17573;55.922;37.540;2023-08-30T00:10:47;7.97;;;7.13;;
30862;SDS011;17573;55.922;37.540;2023-08-30T00:13:14;7.57;;;6.53;;
30862;SDS011;17573;55.922;37.540;2023-08-30T00:15:40;9.65;;;7.25;;
30862;SDS011;17573;55.922;37.540;2023-08-30T00:18:06;13.38;;;6.95;;
30862;SDS011;17573;55.922;37.540;2023-08-30T00:20:32;7.70;;;6.55;;
30862;SDS011;17573;55.922;37.540;2023-08-30T00:22:58;7.95;;;7.13;;
30862;SDS011;17573;55.922;37.540;2023-08-30T00:25:24;12.45;;;7.78;;
30862;SDS011;17573;55.922;37.540;2023-08-30T00:27:49;9.13;;;7.85;;
30862;SDS011;17573;55.922;37.540;2023-08-30T00:30:15;8.93;;;7.32;;
30862;SDS011;17573;55.922;37.540;2023-08-30T00:32:41;9.18;;;7.78;;
30862;SDS011;17573;55.922;37.540;2023-08-30T00:35:07;7.75;;;6.63;;
30862;SDS011;17573;55.922;37.540;2023-08-30T00:37:33;7.50;;;6.70;;
30862;SDS011;17573;55.922;37.540;2023-08-30T00:39:59;8.30;;;6.28;;
30862;SDS011;17573;55.922;37.540;2023-08-30T00:42:31;6.95;;;6.18;;
30862;SDS011;17573;55.922;37.540;2023-08-30T00:44:57;7.70;;;6.32;;
30862;SDS011;17573;55.922;37.540;2023-08-30T00:47:23;6.20;;;5.60;;
30862;SDS011;17573;55.922;37.540;2023-08-30T00:49:50;5.85;;;5.35;;
30862;SDS011;17573;55.922;37.540;2023-08-30T00:52:16;6.32;;;5.43;;
30862;SDS011;17573;55.922;37.540;2023-08-30T00:54:43;6.30;;;5.70;;
30862;SDS011;17573;55.922;37.540;2023-08-30T00:57:09;6.22;;;5.53;;
30862;SDS011;17573;55.922;37.540;2023-08-30T00:59:35;6.53;;;5.65;;
30862;SDS011;17573;55.922;37.540;2023-08-30T01:02:00;6.72;;;6.00;;
30862;SDS011;17573;55.922;37.540;2023-08-30T01:04:27;5.95;;;5.40;;
30862;SDS011;17573;55.922;37.540;2023-08-30T01:06:53;7.13;;;5.88;;
30862;SDS011;17573;55.922;37.540;2023-08-30T01:09:19;8.73;;;5.63;;
30862;SDS011;17573;55.922;37.540;2023-08-30T01:17:15;7.40;;;6.07;;
30862;SDS011;17573;55.922;37.540;2023-08-30T01:22:47;12.13;;;7.95;;
30862;SDS011;17573;55.922;37.540;2023-08-30T01:28:04;10.32;;;9.30;;
30862;SDS011;17573;55.922;37.540;2023-08-30T01:30:32;10.30;;;8.30;;
30862;SDS011;17573;55.922;37.540;2023-08-30T01:33:00;12.18;;;8.52;;
30862;SDS011;17573;55.922;37.540;2023-08-30T01:35:26;11.43;;;8.80;;
30862;SDS011;17573;55.922;37.540;2023-08-30T01:37:59;15.75;;;9.68;;
30862;SDS011;17573;55.922;37.540;2023-08-30T01:40:28;14.10;;;11.30;;
30862;SDS011;17573;55.922;37.540;2023-08-30T01:42:54;16.65;;;11.68;;
30862;SDS011;17573;55.922;37.540;2023-08-30T01:45:20;25.45;;;13.02;;
30862;SDS011;17573;55.922;37.540;2023-08-30T01:47:47;14.23;;;11.45;;
30862;SDS011;17573;55.922;37.540;2023-08-30T01:50:15;15.77;;;12.32;;
30862;SDS011;17573;55.922;37.540;2023-08-30T01:52:42;19.00;;;13.30;;
30862;SDS011;17573;55.922;37.540;2023-08-30T01:55:08;16.15;;;13.02;;
30862;SDS011;17573;55.922;37.540;2023-08-30T01:57:34;14.40;;;12.07;;
30862;SDS011;17573;55.922;37.540;2023-08-30T02:00:00;17.27;;;11.77;;
30862;SDS011;17573;55.922;37.540;2023-08-30T02:02:29;15.50;;;11.15;;
30862;SDS011;17573;55.922;37.540;2023-08-30T02:04:55;13.70;;;11.30;;
30862;SDS011;17573;55.922;37.540;2023-08-30T02:07:35;15.20;;;11.25;;
30862;SDS011;17573;55.922;37.540;2023-08-30T02:10:10;15.98;;;12.70;;
30862;SDS011;17573;55.922;37.540;2023-08-30T02:12:47;14.15;;;11.85;;
30862;SDS011;17573;55.922;37.540;2023-08-30T02:15:13;13.38;;;10.80;;
30862;SDS011;17573;55.922;37.540;2023-08-30T02:17:40;13.52;;;11.30;;
30862;SDS011;17573;55.922;37.540;2023-08-30T02:20:06;19.48;;;12.23;;
30862;SDS011;17573;55.922;37.540;2023-08-30T02:22:33;15.20;;;11.65;;
30862;SDS011;17573;55.922;37.540;2023-08-30T02:24:59;19.13;;;12.88;;
30862;SDS011;17573;55.922;37.540;2023-08-30T02:27:31;21.70;;;12.38;;
30862;SDS011;17573;55.922;37.540;2023-08-30T02:29:57;16.85;;;11.95;;
30862;SDS011;17573;55.922;37.540;2023-08-30T02:32:24;15.45;;;12.18;;
30862;SDS011;17573;55.922;37.540;2023-08-30T02:34:51;15.98;;;11.48;;
30862;SDS011;17573;55.922;37.540;2023-08-30T02:37:20;16.63;;;11.45;;
30862;SDS011;17573;55.922;37.540;2023-08-30T02:39:46;19.73;;;11.68;;
30862;SDS011;17573;55.922;37.540;2023-08-30T02:42:12;18.02;;;12.48;;
30862;SDS011;17573;55.922;37.540;2023-08-30T02:44:38;17.17;;;11.48;;
30862;SDS011;17573;55.922;37.540;2023-08-30T02:47:04;15.45;;;11.60;;
30862;SDS011;17573;55.922;37.540;2023-08-30T02:49:32;14.57;;;11.27;;
30862;SDS011;17573;55.922;37.540;2023-08-30T02:51:58;14.90;;;12.02;;
30862;SDS011;17573;55.922;37.540;2023-08-30T02:54:24;14.32;;;10.35;;
30862;SDS011;17573;55.922;37.540;2023-08-30T02:56:50;21.77;;;11.57;;
30862;SDS011;17573;55.922;37.540;2023-08-30T02:59:16;16.00;;;10.95;;
30862;SDS011;17573;55.922;37.540;2023-08-30T03:01:43;15.55;;;10.90;;
30862;SDS011;17573;55.922;37.540;2023-08-30T03:04:11;14.93;;;11.40;;
30862;SDS011;17573;55.922;37.540;2023-08-30T03:06:37;15.13;;;11.90;;
30862;SDS011;17573;55.922;37.540;2023-08-30T03:09:03;20.05;;;11.05;;
30862;SDS011;17573;55.922;37.540;2023-08-30T03:11:33;11.57;;;10.05;;
30862;SDS011;17573;55.922;37.540;2023-08-30T03:14:00;11.27;;;9.60;;
30862;SDS011;17573;55.922;37.540;2023-08-30T03:16:26;12.45;;;9.25;;
30862;SDS011;17573;55.922;37.540;2023-08-30T03:18:53;15.50;;;9.70;;
30862;SDS011;17573;55.922;37.540;2023-08-30T03:21:19;9.30;;;8.32;;
30862;SDS011;17573;55.922;37.540;2023-08-30T03:23:45;11.13;;;8.38;;
30862;SDS011;17573;55.922;37.540;2023-08-30T03:26:11;13.38;;;9.35;;
30862;SDS011;17573;55.922;37.540;2023-08-30T03:28:39;11.88;;;10.20;;
30862;SDS011;17573;55.922;37.540;2023-08-30T03:33:42;11.02;;;9.82;;
30862;SDS011;17573;55.922;37.540;2023-08-30T03:36:11;22.10;;;10.00;;
30862;SDS011;17573;55.922;37.540;2023-08-30T03:38:39;13.00;;;10.35;;
30862;SDS011;17573;55.922;37.540;2023-08-30T03:41:05;12.35;;;10.48;;
30862;SDS011;17573;55.922;37.540;2023-08-30T03:43:32;14.75;;;10.45;;
30862;SDS011;17573;55.922;37.540;2023-08-30T03:45:59;16.45;;;9.05;;
30862;SDS011;17573;55.922;37.540;2023-08-30T03:48:25;12.40;;;8.35;;
30862;SDS011;17573;55.922;37.540;2023-08-30T03:50:51;13.30;;;8.40;;
30862;SDS011;17573;55.922;37.540;2023-08-30T03:53:17;17.98;;;8.77;;
30862;SDS011;17573;55.922;37.540;2023-08-30T03:55:43;11.65;;;8.85;;
30862;SDS011;17573;55.922;37.540;2023-08-30T03:58:09;10.07;;;9.07;;
30862;SDS011;17573;55.922;37.540;2023-08-30T04:00:38;12.00;;;8.82;;
30862;SDS011;17573;55.922;37.540;2023-08-30T04:03:05;12.40;;;8.10;;
30862;SDS011;17573;55.922;37.540;2023-08-30T04:05:36;10.35;;;8.88;;
30862;SDS011;17573;55.922;37.540;2023-08-30T04:08:06;10.50;;;7.93;;
30862;SDS011;17573;55.922;37.540;2023-08-30T04:10:38;11.88;;;8.70;;
30862;SDS011;17573;55.922;37.540;2023-08-30T04:13:05;10.57;;;9.48;;
30862;SDS011;17573;55.922;37.540;2023-08-30T04:15:36;13.93;;;8.80;;
30862;SDS011;17573;55.922;37.540;2023-08-30T04:18:03;10.93;;;9.32;;
30862;SDS011;17573;55.922;37.540;2023-08-30T04:20:30;10.65;;;9.07;;
30862;SDS011;17573;55.922;37.540;2023-08-30T04:22:56;10.07;;;8.88;;
30862;SDS011;17573;55.922;37.540;2023-08-30T04:25:23;13.70;;;8.15;;
30862;SDS011;17573;55.922;37.540;2023-08-30T04:27:49;13.70;;;8.80;;
30862;SDS011;17573;55.922;37.540;2023-08-30T04:30:16;15.45;;;8.15;;
30862;SDS011;17573;55.922;37.540;2023-08-30T04:32:42;13.18;;;8.20;;
30862;SDS011;17573;55.922;37.540;2023-08-30T04:35:08;9.60;;;7.20;;
30862;SDS011;17573;55.922;37.540;2023-08-30T04:37:34;12.43;;;8.10;;
30862;SDS011;17573;55.922;37.540;2023-08-30T04:40:00;10.32;;;7.78;;
30862;SDS011;17573;55.922;37.540;2023-08-30T04:42:29;10.73;;;7.95;;
30862;SDS011;17573;55.922;37.540;2023-08-30T04:44:54;8.35;;;7.00;;
30862;SDS011;17573;55.922;37.540;2023-08-30T04:47:22;10.18;;;7.57;;
30862;SDS011;17573;55.922;37.540;2023-08-30T04:49:51;11.00;;;7.25;;
30862;SDS011;17573;55.922;37.540;2023-08-30T04:52:18;10.38;;;6.75;;
30862;SDS011;17573;55.922;37.540;2023-08-30T04:54:44;7.78;;;6.45;;
30862;SDS011;17573;55.922;37.540;2023-08-30T04:57:12;15.23;;;7.00;;
30862;SDS011;17573;55.922;37.540;2023-08-30T04:59:43;11.80;;;7.13;;
30862;SDS011;17573;55.922;37.540;2023-08-30T05:02:10;9.93;;;7.20;;
30862;SDS011;17573;55.922;37.540;2023-08-30T05:04:43;12.02;;;6.53;;
30862;SDS011;17573;55.922;37.540;2023-08-30T05:07:09;10.00;;;5.85;;
30862;SDS011;17573;55.922;37.540;2023-08-30T05:09:35;7.50;;;6.07;;
30862;SDS011;17573;55.922;37.540;2023-08-30T05:12:00;8.38;;;5.68;;
30862;SDS011;17573;55.922;37.540;2023-08-30T05:14:28;6.85;;;5.82;;
30862;SDS011;17573;55.922;37.540;2023-08-30T05:16:54;6.57;;;5.65;;
30862;SDS011;17573;55.922;37.540;2023-08-30T05:19:20;11.27;;;6.40;;
30862;SDS011;17573;55.922;37.540;2023-08-30T05:21:47;6.75;;;5.97;;
30862;SDS011;17573;55.922;37.540;2023-08-30T05:24:17;7.25;;;5.45;;
30862;SDS011;17573;55.922;37.540;2023-08-30T05:26:43;5.40;;;4.82;;
30862;SDS011;17573;55.922;37.540;2023-08-30T05:29:13;9.88;;;6.03;;
30862;SDS011;17573;55.922;37.540;2023-08-30T05:31:42;13.25;;;6.60;;
30862;SDS011;17573;55.922;37.540;2023-08-30T05:34:44;10.75;;;6.43;;
30862;SDS011;17573;55.922;37.540;2023-08-30T05:37:26;9.38;;;6.35;;
30862;SDS011;17573;55.922;37.540;2023-08-30T05:40:00;6.75;;;6.03;;
30862;SDS011;17573;55.922;37.540;2023-08-30T05:42:29;6.32;;;5.65;;
30862;SDS011;17573;55.922;37.540;2023-08-30T05:44:56;6.75;;;5.78;;
30862;SDS011;17573;55.922;37.540;2023-08-30T05:47:22;7.78;;;5.95;;
30862;SDS011;17573;55.922;37.540;2023-08-30T05:49:48;7.30;;;5.40;;
30862;SDS011;17573;55.922;37.540;2023-08-30T05:52:14;6.50;;;4.95;;
30862;SDS011;17573;55.922;37.540;2023-08-30T05:54:41;6.53;;;5.32;;
30862;SDS011;17573;55.922;37.540;2023-08-30T05:57:09;6.07;;;5.07;;
30862;SDS011;17573;55.922;37.540;2023-08-30T05:59:36;7.07;;;5.35;;
30862;SDS011;17573;55.922;37.540;2023-08-30T06:02:02;8.70;;;5.80;;
30862;SDS011;17573;55.922;37.540;2023-08-30T06:04:29;8.80;;;5.80;;
30862;SDS011;17573;55.922;37.540;2023-08-30T06:06:54;5.93;;;5.30;;
30862;SDS011;17573;55.922;37.540;2023-08-30T06:09:20;10.30;;;5.72;;
30862;SDS011;17573;55.922;37.540;2023-08-30T06:11:47;10.90;;;5.93;;
30862;SDS011;17573;55.922;37.540;2023-08-30T06:14:12;8.55;;;5.93;;
30862;SDS011;17573;55.922;37.540;2023-08-30T06:16:38;11.27;;;6.40;;
30862;SDS011;17573;55.922;37.540;2023-08-30T06:19:09;13.10;;;5.88;;
30862;SDS011;17573;55.922;37.540;2023-08-30T06:21:38;9.20;;;5.60;;
30862;SDS011;17573;55.922;37.540;2023-08-30T06:24:04;15.88;;;5.55;;
30862;SDS011;17573;55.922;37.540;2023-08-30T06:26:30;6.65;;;5.43;;
30862;SDS011;17573;55.922;37.540;2023-08-30T06:28:55;15.52;;;5.80;;
30862;SDS011;17573;55.922;37.540;2023-08-30T06:31:21;13.52;;;5.40;;
30862;SDS011;17573;55.922;37.540;2023-08-30T06:33:47;12.32;;;5.88;;
30862;SDS011;17573;55.922;37.540;2023-08-30T06:36:13;7.10;;;4.78;;
30862;SDS011;17573;55.922;37.540;2023-08-30T06:38:41;13.23;;;6.05;;
30862;SDS011;17573;55.922;37.540;2023-08-30T06:41:07;12.35;;;5.80;;
30862;SDS011;17573;55.922;37.540;2023-08-30T06:43:33;8.82;;;5.88;;
30862;SDS011;17573;55.922;37.540;2023-08-30T06:45:59;9.60;;;5.88;;
30862;SDS011;17573;55.922;37.540;2023-08-30T06:48:24;11.32;;;5.15;;
30862;SDS011;17573;55.922;37.540;2023-08-30T06:50:50;13.40;;;5.22;;
30862;SDS011;17573;55.922;37.540;2023-08-30T06:53:16;7.80;;;5.13;;
30862;SDS011;17573;55.922;37.540;2023-08-30T06:55:42;11.48;;;5.00;;
30862;SDS011;17573;55.922;37.540;2023-08-30T06:58:08;10.35;;;5.00;;
30862;SDS011;17573;55.922;37.540;2023-08-30T07:00:34;5.38;;;4.50;;
30862;SDS011;17573;55.922;37.540;2023-08-30T07:03:00;4.72;;;4.22;;
30862;SDS011;17573;55.922;37.540;2023-08-30T07:05:25;5.95;;;4.82;;
30862;SDS011;17573;55.922;37.540;2023-08-30T07:07:51;8.15;;;4.45;;
30862;SDS011;17573;55.922;37.540;2023-08-30T07:10:17;7.57;;;5.13;;
30862;SDS011;17573;55.922;37.540;2023-08-30T07:12:44;9.38;;;4.75;;
30862;SDS011;17573;55.922;37.540;2023-08-30T07:15:14;14.98;;;5.57;;
30862;SDS011;17573;55.922;37.540;2023-08-30T07:17:42;11.98;;;5.45;;
30862;SDS011;17573;55.922;37.540;2023-08-30T07:20:08;11.55;;;4.53;;
30862;SDS011;17573;55.922;37.540;2023-08-30T07:22:34;11.38;;;6.55;;
30862;SDS011;17573;55.922;37.540;2023-08-30T07:25:00;9.02;;;4.95;;
30862;SDS011;17573;55.922;37.540;2023-08-30T07:27:30;6.82;;;4.43;;
30862;SDS011;17573;55.922;37.540;2023-08-30T07:29:56;5.60;;;4.22;;
30862;SDS011;17573;55.922;37.540;2023-08-30T07:32:22;5.35;;;3.53;;
30862;SDS011;17573;55.922;37.540;2023-08-30T07:34:48;9.25;;;4.30;;
30862;SDS011;17573;55.922;37.540;2023-08-30T07:37:17;9.68;;;3.85;;
30862;SDS011;17573;55.922;37.540;2023-08-30T07:39:46;11.15;;;3.97;;
30862;SDS011;17573;55.922;37.540;2023-08-30T07:42:11;10.82;;;3.90;;
30862;SDS011;17573;55.922;37.540;2023-08-30T07:44:38;4.80;;;3.85;;
30862;SDS011;17573;55.922;37.540;2023-08-30T07:47:04;5.90;;;4.40;;
30862;SDS011;17573;55.922;37.540;2023-08-30T07:49:29;5.38;;;3.97;;
30862;SDS011;17573;55.922;37.540;2023-08-30T07:51:55;8.27;;;4.82;;
30862;SDS011;17573;55.922;37.540;2023-08-30T07:54:21;6.15;;;4.45;;
30862;SDS011;17573;55.922;37.540;2023-08-30T07:56:47;5.10;;;4.00;;
30862;SDS011;17573;55.922;37.540;2023-08-30T07:59:13;7.53;;;4.32;;
30862;SDS011;17573;55.922;37.540;2023-08-30T08:01:39;4.53;;;3.45;;
30862;SDS011;17573;55.922;37.540;2023-08-30T08:04:04;14.43;;;4.70;;
30862;SDS011;17573;55.922;37.540;2023-08-30T08:06:30;6.38;;;3.78;;
30862;SDS011;17573;55.922;37.540;2023-08-30T08:08:56;5.90;;;3.97;;
30862;SDS011;17573;55.922;37.540;2023-08-30T08:11:22;5.43;;;3.60;;
30862;SDS011;17573;55.922;37.540;2023-08-30T08:13:47;4.20;;;3.80;;
30862;SDS011;17573;55.922;37.540;2023-08-30T08:16:13;14.77;;;4.85;;
30862;SDS011;17573;55.922;37.540;2023-08-30T08:18:39;13.88;;;4.70;;
30862;SDS011;17573;55.922;37.540;2023-08-30T08:21:05;11.13;;;3.85;;
30862;SDS011;17573;55.922;37.540;2023-08-30T08:23:30;8.98;;;3.80;;
30862;SDS011;17573;55.922;37.540;2023-08-30T08:25:57;10.18;;;3.97;;
30862;SDS011;17573;55.922;37.540;2023-08-30T08:28:26;10.13;;;4.40;;
30862;SDS011;17573;55.922;37.540;2023-08-30T08:30:52;10.05;;;3.40;;
30862;SDS011;17573;55.922;37.540;2023-08-30T08:33:18;6.75;;;3.63;;
30862;SDS011;17573;55.922;37.540;2023-08-30T08:35:45;5.63;;;4.07;;
30862;SDS011;17573;55.922;37.540;2023-08-30T08:38:10;4.65;;;3.85;;
30862;SDS011;17573;55.922;37.540;2023-08-30T08:40:37;4.28;;;3.55;;
30862;SDS011;17573;55.922;37.540;2023-08-30T08:43:04;14.05;;;4.35;;
30862;SDS011;17573;55.922;37.540;2023-08-30T08:45:32;6.72;;;3.40;;
30862;SDS011;17573;55.922;37.540;2023-08-30T08:48:02;8.68;;;3.38;;
30862;SDS011;17573;55.922;37.540;2023-08-30T08:50:29;13.55;;;4.90;;
30862;SDS011;17573;55.922;37.540;2023-08-30T08:52:55;9.40;;;3.55;;
30862;SDS011;17573;55.922;37.540;2023-08-30T08:55:21;7.28;;;3.97;;
30862;SDS011;17573;55.922;37.540;2023-08-30T08:57:48;8.48;;;2.92;;
30862;SDS011;17573;55.922;37.540;2023-08-30T09:00:14;6.28;;;3.05;;
30862;SDS011;17573;55.922;37.540;2023-08-30T09:02:42;14.95;;;3.53;;
30862;SDS011;17573;55.922;37.540;2023-08-30T09:05:08;4.25;;;3.08;;
30862;SDS011;17573;55.922;37.540;2023-08-30T09:07:34;3.50;;;2.90;;
30862;SDS011;17573;55.922;37.540;2023-08-30T09:10:01;11.95;;;3.63;;
30862;SDS011;17573;55.922;37.540;2023-08-30T09:12:32;14.38;;;3.58;;
30862;SDS011;17573;55.922;37.540;2023-08-30T09:14:59;6.80;;;2.97;;
30862;SDS011;17573;55.922;37.540;2023-08-30T09:17:34;2.78;;;2.42;;
30862;SDS011;17573;55.922;37.540;2023-08-30T09:20:07;4.32;;;2.95;;
30862;SDS011;17573;55.922;37.540;2023-08-30T09:22:39;4.30;;;2.58;;
30862;SDS011;17573;55.922;37.540;2023-08-30T09:25:07;4.18;;;2.80;;
30862;SDS011;17573;55.922;37.540;2023-08-30T09:27:34;6.57;;;2.83;;
30862;SDS011;17573;55.922;37.540;2023-08-30T09:30:01;10.20;;;3.05;;
30862;SDS011;17573;55.922;37.540;2023-08-30T09:32:29;3.05;;;2.50;;
30862;SDS011;17573;55.922;37.540;2023-08-30T09:34:55;18.83;;;3.80;;
30862;SDS011;17573;55.922;37.540;2023-08-30T09:37:24;5.05;;;2.70;;
30862;SDS011;17573;55.922;37.540;2023-08-30T09:39:51;6.13;;;2.80;;
30862;SDS011;17573;55.922;37.540;2023-08-30T09:42:17;16.38;;;3.47;;
30862;SDS011;17573;55.922;37.540;2023-08-30T09:44:45;14.23;;;4.10;;
30862;SDS011;17573;55.922;37.540;2023-08-30T09:47:12;6.75;;;3.17;;
30862;SDS011;17573;55.922;37.540;2023-08-30T09:49:42;5.30;;;3.90;;
30862;SDS011;17573;55.922;37.540;2023-08-30T09:52:09;8.13;;;2.92;;
30862;SDS011;17573;55.922;37.540;2023-08-30T09:54:35;5.05;;;2.47;;
30862;SDS011;17573;55.922;37.540;2023-08-30T09:57:07;3.35;;;2.47;;
30862;SDS011;17573;55.922;37.540;2023-08-30T09:59:33;9.40;;;2.30;;
30862;SDS011;17573;55.922;37.540;2023-08-30T10:01:59;2.20;;;2.00;;
30862;SDS011;17573;55.922;37.540;2023-08-30T10:04:28;3.92;;;2.30;;
30862;SDS011;17573;55.922;37.540;2023-08-30T10:06:54;4.28;;;2.30;;
30862;SDS011;17573;55.922;37.540;2023-08-30T10:09:22;8.73;;;2.70;;
30862;SDS011;17573;55.922;37.540;2023-08-30T10:11:49;4.13;;;2.42;;
30862;SDS011;17573;55.922;37.540;2023-08-30T10:14:16;5.97;;;2.42;;
30862;SDS011;17573;55.922;37.540;2023-08-30T10:19:32;4.10;;;2.53;;
30862;SDS011;17573;55.922;37.540;2023-08-30T10:22:05;11.55;;;3.08;;
30862;SDS011;17573;55.922;37.540;2023-08-30T10:24:41;6.47;;;2.47;;
30862;SDS011;17573;55.922;37.540;2023-08-30T10:27:08;3.47;;;3.03;;
30862;SDS011;17573;55.922;37.540;2023-08-30T10:29:37;5.00;;;3.10;;
30862;SDS011;17573;55.922;37.540;2023-08-30T10:32:05;3.80;;;2.35;;
30862;SDS011;17573;55.922;37.540;2023-08-30T10:34:32;7.72;;;2.70;;
30862;SDS011;17573;55.922;37.540;2023-08-30T10:37:00;3.08;;;2.30;;
30862;SDS011;17573;55.922;37.540;2023-08-30T10:39:36;8.35;;;2.05;;
30862;SDS011;17573;55.922;37.540;2023-08-30T10:42:10;3.90;;;2.22;;
30862;SDS011;17573;55.922;37.540;2023-08-30T10:44:56;4.03;;;2.60;;
30862;SDS011;17573;55.922;37.540;2023-08-30T10:47:29;3.58;;;2.72;;
30862;SDS011;17573;55.922;37.540;2023-08-30T10:49:57;4.78;;;2.70;;
30862;SDS011;17573;55.922;37.540;2023-08-30T10:52:26;5.82;;;2.55;;
30862;SDS011;17573;55.922;37.540;2023-08-30T10:55:04;3.75;;;2.60;;
30862;SDS011;17573;55.922;37.540;2023-08-30T10:57:43;5.43;;;2.65;;
30862;SDS011;17573;55.922;37.540;2023-08-30T11:02:46;3.17;;;2.43;;
30862;SDS011;17573;55.922;37.540;2023-08-30T11:05:21;3.80;;;2.38;;
30862;SDS011;17573;55.922;37.540;2023-08-30T11:07:49;5.88;;;2.28;;
30862;SDS011;17573;55.922;37.540;2023-08-30T11:10:16;2.85;;;2.10;;
30862;SDS011;17573;55.922;37.540;2023-08-30T11:12:45;6.22;;;2.20;;
30862;SDS011;17573;55.922;37.540;2023-08-30T11:15:12;7.78;;;2.63;;
30862;SDS011;17573;55.922;37.540;2023-08-30T11:17:42;5.60;;;2.33;;
30862;SDS011;17573;55.922;37.540;2023-08-30T11:20:10;5.63;;;2.33;;
30862;SDS011;17573;55.922;37.540;2023-08-30T11:22:43;6.70;;;2.28;;
30862;SDS011;17573;55.922;37.540;2023-08-30T11:25:10;12.98;;;2.80;;
30862;SDS011;17573;55.922;37.540;2023-08-30T11:27:37;10.18;;;2.45;;
30862;SDS011;17573;55.922;37.540;2023-08-30T11:30:04;2.38;;;1.95;;
30862;SDS011;17573;55.922;37.540;2023-08-30T11:32:33;6.35;;;2.15;;
30862;SDS011;17573;55.922;37.540;2023-08-30T11:35:00;3.45;;;2.25;;
30862;SDS011;17573;55.922;37.540;2023-08-30T11:37:33;5.87;;;1.90;;
30862;SDS011;17573;55.922;37.540;2023-08-30T11:39:59;5.30;;;2.30;;
30862;SDS011;17573;55.922;37.540;2023-08-30T11:42:32;4.05;;;2.78;;
30862;SDS011;17573;55.922;37.540;2023-08-30T11:44:58;3.30;;;2.25;;
30862;SDS011;17573;55.922;37.540;2023-08-30T11:47:25;2.67;;;1.80;;
30862;SDS011;17573;55.922;37.540;2023-08-30T11:49:57;3.13;;;2.00;;
30862;SDS011;17573;55.922;37.540;2023-08-30T11:52:23;4.43;;;2.53;;
30862;SDS011;17573;55.922;37.540;2023-08-30T11:54:50;11.38;;;2.80;;
30862;SDS011;17573;55.922;37.540;2023-08-30T11:57:16;5.90;;;2.22;;
30862;SDS011;17573;55.922;37.540;2023-08-30T11:59:42;4.25;;;2.03;;
30862;SDS011;17573;55.922;37.540;2023-08-30T12:02:08;6.55;;;2.65;;
30862;SDS011;17573;55.922;37.540;2023-08-30T12:04:41;5.18;;;2.35;;
30862;SDS011;17573;55.922;37.540;2023-08-30T12:07:07;3.53;;;2.30;;
30862;SDS011;17573;55.922;37.540;2023-08-30T12:09:33;4.65;;;3.00;;
30862;SDS011;17573;55.922;37.540;2023-08-30T12:12:06;9.60;;;2.85;;
30862;SDS011;17573;55.922;37.540;2023-08-30T12:14:35;11.98;;;2.50;;
30862;SDS011;17573;55.922;37.540;2023-08-30T12:17:01;4.70;;;2.58;;
30862;SDS011;17573;55.922;37.540;2023-08-30T12:19:29;5.72;;;4.70;;
30862;SDS011;17573;55.922;37.540;2023-08-30T12:21:54;5.75;;;2.67;;
30862;SDS011;17573;55.922;37.540;2023-08-30T12:24:20;19.75;;;9.10;;
30862;SDS011;17573;55.922;37.540;2023-08-30T12:26:48;5.57;;;2.70;;
30862;SDS011;17573;55.922;37.540;2023-08-30T12:29:14;7.07;;;3.63;;
30862;SDS011;17573;55.922;37.540;2023-08-30T12:31:40;11.63;;;3.35;;
30862;SDS011;17573;55.922;37.540;2023-08-30T12:34:05;4.78;;;3.20;;
30862;SDS011;17573;55.922;37.540;2023-08-30T12:36:31;5.93;;;3.60;;
30862;SDS011;17573;55.922;37.540;2023-08-30T12:38:57;4.07;;;2.50;;
30862;SDS011;17573;55.922;37.540;2023-08-30T12:41:23;8.40;;;4.05;;
30862;SDS011;17573;55.922;37.540;2023-08-30T12:43:49;5.13;;;2.88;;
30862;SDS011;17573;55.922;37.540;2023-08-30T12:46:16;4.75;;;2.88;;
30862;SDS011;17573;55.922;37.540;2023-08-30T12:48:42;9.25;;;2.88;;
30862;SDS011;17573;55.922;37.540;2023-08-30T12:51:08;9.38;;;3.67;;
30862;SDS011;17573;55.922;37.540;2023-08-30T12:53:34;16.63;;;3.33;;
30862;SDS011;17573;55.922;37.540;2023-08-30T12:56:00;13.95;;;5.10;;
30862;SDS011;17573;55.922;37.540;2023-08-30T12:58:26;9.70;;;3.28;;
30862;SDS011;17573;55.922;37.540;2023-08-30T13:00:52;10.98;;;3.63;;
30862;SDS011;17573;55.922;37.540;2023-08-30T13:03:18;10.25;;;2.60;;
30862;SDS011;17573;55.922;37.540;2023-08-30T13:05:44;10.05;;;5.32;;
30862;SDS011;17573;55.922;37.540;2023-08-30T13:08:09;7.85;;;5.55;;
30862;SDS011;17573;55.922;37.540;2023-08-30T13:10:36;12.90;;;3.60;;
30862;SDS011;17573;55.922;37.540;2023-08-30T13:13:02;15.07;;;5.18;;
30862;SDS011;17573;55.922;37.540;2023-08-30T13:15:28;12.30;;;2.70;;
30862;SDS011;17573;55.922;37.540;2023-08-30T13:17:54;23.50;;;4.57;;
30862;SDS011;17573;55.922;37.540;2023-08-30T13:20:21;20.45;;;3.45;;
30862;SDS011;17573;55.922;37.540;2023-08-30T13:22:47;14.45;;;7.95;;
30862;SDS011;17573;55.922;37.540;2023-08-30T13:25:13;7.13;;;2.70;;
30862;SDS011;17573;55.922;37.540;2023-08-30T13:27:39;5.65;;;2.78;;
30862;SDS011;17573;55.922;37.540;2023-08-30T13:30:05;20.23;;;3.90;;
30862;SDS011;17573;55.922;37.540;2023-08-30T13:32:31;6.63;;;2.65;;
30862;SDS011;17573;55.922;37.540;2023-08-30T13:34:58;10.25;;;3.10;;
30862;SDS011;17573;55.922;37.540;2023-08-30T13:37:24;14.95;;;2.85;;
30862;SDS011;17573;55.922;37.540;2023-08-30T13:39:52;5.63;;;2.88;;
30862;SDS011;17573;55.922;37.540;2023-08-30T13:42:18;11.25;;;3.85;;
30862;SDS011;17573;55.922;37.540;2023-08-30T13:44:44;5.55;;;3.10;;
30862;SDS011;17573;55.922;37.540;2023-08-30T13:47:10;3.58;;;2.92;;
30862;SDS011;17573;55.922;37.540;2023-08-30T13:49:37;8.43;;;3.10;;
30862;SDS011;17573;55.922;37.540;2023-08-30T13:52:02;10.65;;;2.97;;
30862;SDS011;17573;55.922;37.540;2023-08-30T13:54:28;12.68;;;3.05;;
30862;SDS011;17573;55.922;37.540;2023-08-30T13:56:57;8.15;;;3.30;;
30862;SDS011;17573;55.922;37.540;2023-08-30T13:59:23;4.28;;;2.58;;
30862;SDS011;17573;55.922;37.540;2023-08-30T14:01:49;18.92;;;3.70;;
30862;SDS011;17573;55.922;37.540;2023-08-30T14:04:14;10.65;;;3.13;;
30862;SDS011;17573;55.922;37.540;2023-08-30T14:06:40;17.15;;;4.30;;
30862;SDS011;17573;55.922;37.540;2023-08-30T14:09:06;14.82;;;3.47;;
30862;SDS011;17573;55.922;37.540;2023-08-30T14:11:36;8.13;;;3.10;;
30862;SDS011;17573;55.922;37.540;2023-08-30T14:14:03;4.80;;;3.10;;
30862;SDS011;17573;55.922;37.540;2023-08-30T14:16:29;8.75;;;3.13;;
30862;SDS011;17573;55.922;37.540;2023-08-30T14:18:55;7.57;;;3.08;;
30862;SDS011;17573;55.922;37.540;2023-08-30T14:21:25;10.43;;;3.40;;
30862;SDS011;17573;55.922;37.540;2023-08-30T14:23:53;11.07;;;3.25;;
30862;SDS011;17573;55.922;37.540;2023-08-30T14:26:19;17.13;;;4.38;;
30862;SDS011;17573;55.922;37.540;2023-08-30T14:28:44;12.07;;;3.83;;
30862;SDS011;17573;55.922;37.540;2023-08-30T14:31:10;16.17;;;4.10;;
30862;SDS011;17573;55.922;37.540;2023-08-30T14:33:36;6.78;;;3.55;;
30862;SDS011;17573;55.922;37.540;2023-08-30T14:36:03;13.10;;;5.28;;
30862;SDS011;17573;55.922;37.540;2023-08-30T14:38:33;17.98;;;5.53;;
30862;SDS011;17573;55.922;37.540;2023-08-30T14:41:00;53.92;;;7.95;;
30862;SDS011;17573;55.922;37.540;2023-08-30T14:43:30;26.63;;;6.60;;
30862;SDS011;17573;55.922;37.540;2023-08-30T14:46:02;36.38;;;7.13;;